createdAt,value
2017-11-29T00:02:25.072Z,5.10
2017-11-29T00:04:53.629Z,4.90
2017-11-29T00:07:21.558Z,4.67
2017-11-29T00:09:49.136Z,4.60
2017-11-29T00:12:16.845Z,4.70
2017-11-29T00:14:44.528Z,4.27
2017-11-29T00:17:12.118Z,4.53
2017-11-29T00:19:40.846Z,4.80
2017-11-29T00:22:08.455Z,4.90
2017-11-29T00:24:36.046Z,4.37
2017-11-29T00:27:03.678Z,5.57
2017-11-29T00:29:31.422Z,4.77
2017-11-29T00:31:59.045Z,4.80
2017-11-29T00:34:27.465Z,4.97
2017-11-29T00:36:55.048Z,5.20
2017-11-29T00:39:22.619Z,4.53
2017-11-29T00:41:50.249Z,4.47
2017-11-29T00:44:17.803Z,5.80
2017-11-29T00:46:47.949Z,4.50
2017-11-29T00:49:16.295Z,4.63
2017-11-29T00:51:44.704Z,4.60
2017-11-29T00:54:12.276Z,5.27
2017-11-29T00:56:39.849Z,4.60
2017-11-29T00:59:08.209Z,4.37
2017-11-29T01:01:35.810Z,4.47
2017-11-29T01:04:03.385Z,4.40
2017-11-29T01:06:30.992Z,4.70
2017-11-29T01:08:58.563Z,5.13
2017-11-29T01:11:26.123Z,4.60
2017-11-29T01:13:54.376Z,4.40
2017-11-29T01:16:21.962Z,7.17
2017-11-29T01:18:49.678Z,5.00
2017-11-29T01:21:17.276Z,4.70
2017-11-29T01:23:44.869Z,5.40
2017-11-29T01:26:12.429Z,5.47
2017-11-29T01:28:40.063Z,5.20
2017-11-29T01:31:07.676Z,5.57
2017-11-29T01:33:35.238Z,5.80
2017-11-29T01:36:02.849Z,5.87
2017-11-29T01:38:30.405Z,5.60
2017-11-29T01:40:58.786Z,5.53
2017-11-29T01:43:26.466Z,6.17
2017-11-29T01:45:54.028Z,5.73
2017-11-29T01:48:22.192Z,7.33
2017-11-29T01:50:50.577Z,6.03
2017-11-29T01:53:18.167Z,5.67
2017-11-29T01:55:45.768Z,5.33
2017-11-29T01:58:14.117Z,5.60
2017-11-29T02:00:48.425Z,5.70
2017-11-29T02:03:16.137Z,5.43
2017-11-29T02:05:44.465Z,5.83
2017-11-29T02:08:12.055Z,5.47
2017-11-29T02:10:39.635Z,5.97
2017-11-29T02:13:08.057Z,5.70
2017-11-29T02:15:35.900Z,5.00
2017-11-29T02:18:03.453Z,5.40
2017-11-29T02:20:31.053Z,5.47
2017-11-29T02:22:58.620Z,7.00
2017-11-29T02:25:26.176Z,5.57
2017-11-29T02:27:53.758Z,5.40
2017-11-29T02:30:21.329Z,5.53
2017-11-29T02:32:48.942Z,5.13
2017-11-29T02:35:16.546Z,5.50
2017-11-29T02:37:44.163Z,5.77
2017-11-29T02:40:23.494Z,5.23
2017-11-29T02:42:51.876Z,5.00
2017-11-29T02:45:19.425Z,5.37
2017-11-29T02:47:47.056Z,5.60
2017-11-29T02:50:14.793Z,5.30
2017-11-29T02:52:42.347Z,6.20
2017-11-29T02:55:09.957Z,5.13
2017-11-29T02:57:37.511Z,5.37
2017-11-29T03:00:06.187Z,5.37
2017-11-29T03:02:34.518Z,5.23
2017-11-29T03:05:02.939Z,5.30
2017-11-29T03:07:30.484Z,4.80
2017-11-29T03:09:58.190Z,5.50
2017-11-29T03:12:26.516Z,4.80
2017-11-29T03:14:54.137Z,6.33
2017-11-29T03:17:21.733Z,5.20
2017-11-29T03:19:49.312Z,5.30
2017-11-29T03:22:16.920Z,5.23
2017-11-29T03:24:44.496Z,5.17
2017-11-29T03:27:12.067Z,5.17
2017-11-29T03:29:39.720Z,5.10
2017-11-29T03:32:07.333Z,5.83
2017-11-29T03:34:34.893Z,5.87
2017-11-29T03:37:02.477Z,5.30
2017-11-29T03:39:30.222Z,5.87
2017-11-29T03:41:58.009Z,5.43
2017-11-29T03:44:25.594Z,5.60
2017-11-29T03:46:53.167Z,6.63
2017-11-29T03:49:20.767Z,6.00
2017-11-29T03:51:49.091Z,6.53
2017-11-29T03:54:16.812Z,6.60
2017-11-29T03:56:45.129Z,5.67
2017-11-29T03:59:12.731Z,7.47
2017-11-29T04:01:41.075Z,7.37
2017-11-29T04:04:08.677Z,9.10
2017-11-29T04:06:36.389Z,8.00
2017-11-29T04:09:04.099Z,7.30
2017-11-29T04:11:32.441Z,7.50
2017-11-29T04:14:00.039Z,7.77
2017-11-29T04:16:28.157Z,7.60
2017-11-29T04:18:55.769Z,7.00
2017-11-29T04:21:23.329Z,7.90
2017-11-29T04:23:50.914Z,7.77
2017-11-29T04:26:19.247Z,8.27
2017-11-29T04:28:46.853Z,9.73
2017-11-29T04:31:15.188Z,8.00
2017-11-29T04:33:42.972Z,8.40
2017-11-29T04:36:11.380Z,8.70
2017-11-29T04:38:39.730Z,8.50
2017-11-29T04:41:07.332Z,9.20
2017-11-29T04:43:35.229Z,8.53
2017-11-29T04:46:03.047Z,9.13
2017-11-29T04:48:31.041Z,9.53
2017-11-29T04:50:58.653Z,9.17
2017-11-29T04:53:26.222Z,10.00
2017-11-29T04:55:53.905Z,10.23
2017-11-29T04:58:21.507Z,14.93
2017-11-29T05:00:49.118Z,10.30
2017-11-29T05:03:18.421Z,9.87
2017-11-29T05:05:46.018Z,10.67
2017-11-29T05:08:13.623Z,10.53
2017-11-29T05:10:41.201Z,10.07
2017-11-29T05:13:08.817Z,12.27
2017-11-29T05:15:36.372Z,9.53
2017-11-29T05:18:04.173Z,10.40
2017-11-29T05:20:31.753Z,10.27
2017-11-29T05:23:00.224Z,11.03
2017-11-29T05:25:28.947Z,13.93
2017-11-29T05:27:56.677Z,11.57
2017-11-29T05:30:24.292Z,24.13
2017-11-29T05:32:51.939Z,11.40
2017-11-29T05:35:19.554Z,15.07
2017-11-29T05:37:47.128Z,10.17
2017-11-29T05:40:14.884Z,10.40
2017-11-29T05:42:43.741Z,10.53
2017-11-29T05:45:11.437Z,10.33
2017-11-29T05:47:39.024Z,11.50
2017-11-29T05:50:06.653Z,10.07
2017-11-29T05:52:34.257Z,10.77
2017-11-29T05:55:01.816Z,11.30
2017-11-29T05:57:29.401Z,12.03
2017-11-29T05:59:57.021Z,11.00
2017-11-29T06:02:24.603Z,11.27
2017-11-29T06:04:52.218Z,12.13
2017-11-29T06:07:20.567Z,11.63
2017-11-29T06:09:48.168Z,11.03
2017-11-29T06:12:15.729Z,12.63
2017-11-29T06:14:44.100Z,11.07
2017-11-29T06:17:11.896Z,12.53
2017-11-29T06:19:39.463Z,11.57
2017-11-29T06:22:07.073Z,11.17
2017-11-29T06:24:34.631Z,11.30
2017-11-29T06:27:02.405Z,11.07
2017-11-29T06:29:29.956Z,11.60
2017-11-29T06:31:57.733Z,12.63
2017-11-29T06:34:25.381Z,11.80
2017-11-29T06:36:53.755Z,13.93
2017-11-29T06:39:21.389Z,12.07
2017-11-29T06:41:48.953Z,10.73
2017-11-29T06:44:16.521Z,12.47
2017-11-29T06:46:44.373Z,11.00
2017-11-29T06:49:11.987Z,11.17
2017-11-29T06:51:40.465Z,10.60
2017-11-29T06:54:08.030Z,11.00
2017-11-29T06:56:35.611Z,11.00
2017-11-29T06:59:04.057Z,10.43
2017-11-29T07:01:31.648Z,10.20
2017-11-29T07:03:59.236Z,10.80
2017-11-29T07:06:26.824Z,10.87
2017-11-29T07:08:54.385Z,9.80
2017-11-29T07:11:21.965Z,9.77
2017-11-29T07:13:49.630Z,10.27
2017-11-29T07:16:17.245Z,11.03
2017-11-29T07:18:45.169Z,17.60
2017-11-29T07:21:12.812Z,11.07
2017-11-29T07:23:40.410Z,12.60
2017-11-29T07:26:08.016Z,9.63
2017-11-29T07:28:35.616Z,10.57
2017-11-29T07:31:03.976Z,10.47
2017-11-29T07:33:31.589Z,10.27
2017-11-29T07:35:59.261Z,10.53
2017-11-29T07:38:27.037Z,10.37
2017-11-29T07:40:55.389Z,9.80
2017-11-29T07:43:22.953Z,11.63
2017-11-29T07:45:50.723Z,11.40
2017-11-29T07:48:18.784Z,11.27
2017-11-29T07:50:47.165Z,10.07
2017-11-29T07:53:14.782Z,11.67
2017-11-29T07:55:42.401Z,11.00
2017-11-29T07:58:09.997Z,11.50
2017-11-29T08:00:37.616Z,11.67
2017-11-29T08:03:05.200Z,11.17
2017-11-29T08:05:32.961Z,12.60
2017-11-29T08:08:01.414Z,12.10
2017-11-29T08:10:29.037Z,11.27
2017-11-29T08:12:57.170Z,12.40
2017-11-29T08:15:24.768Z,12.07
2017-11-29T08:17:52.382Z,11.63
2017-11-29T08:20:19.981Z,11.93
2017-11-29T08:22:47.597Z,12.00
2017-11-29T08:25:16.157Z,12.53
2017-11-29T08:27:44.550Z,18.30
2017-11-29T08:30:12.978Z,11.87
2017-11-29T08:32:40.618Z,12.77
2017-11-29T08:35:08.499Z,12.97
2017-11-29T08:37:36.314Z,12.80
2017-11-29T08:40:04.698Z,11.90
2017-11-29T08:42:33.167Z,12.77
2017-11-29T08:45:00.829Z,11.50
2017-11-29T08:47:29.249Z,11.87
2017-11-29T08:49:57.501Z,11.73
2017-11-29T08:52:25.737Z,12.30
2017-11-29T08:54:53.404Z,11.03
2017-11-29T08:57:21.035Z,11.50
2017-11-29T08:59:48.609Z,11.73
2017-11-29T09:02:16.222Z,11.50
2017-11-29T09:04:43.835Z,11.23
2017-11-29T09:07:11.458Z,11.10
2017-11-29T09:09:39.047Z,11.50
2017-11-29T09:12:06.965Z,12.13
2017-11-29T09:14:34.621Z,11.30
2017-11-29T09:17:02.261Z,10.37
2017-11-29T09:19:29.820Z,11.17
2017-11-29T09:21:57.437Z,11.13
2017-11-29T09:24:25.012Z,11.57
2017-11-29T09:26:52.705Z,10.83
2017-11-29T09:29:22.608Z,11.03
2017-11-29T09:31:50.215Z,10.63
2017-11-29T09:34:17.801Z,12.97
2017-11-29T09:36:45.363Z,11.80
2017-11-29T09:39:13.025Z,11.57
2017-11-29T09:41:41.399Z,12.80
2017-11-29T09:44:08.965Z,11.23
2017-11-29T09:46:36.785Z,10.60
2017-11-29T09:49:05.626Z,10.17
2017-11-29T09:51:33.229Z,11.33
2017-11-29T09:54:01.601Z,12.10
2017-11-29T09:56:29.176Z,11.63
2017-11-29T09:58:56.781Z,11.00
2017-11-29T10:01:24.374Z,10.27
2017-11-29T10:03:51.977Z,8.90
2017-11-29T10:06:19.578Z,11.20
2017-11-29T10:08:47.180Z,10.70
2017-11-29T10:11:14.800Z,10.50
2017-11-29T10:13:42.493Z,15.93
2017-11-29T10:16:10.085Z,9.83
2017-11-29T10:18:37.711Z,10.50
2017-11-29T10:21:05.751Z,9.57
2017-11-29T10:23:33.360Z,8.80
2017-11-29T10:26:01.366Z,10.00
2017-11-29T10:28:28.932Z,9.77
2017-11-29T10:30:56.903Z,9.60
2017-11-29T10:33:24.540Z,9.00
2017-11-29T10:35:52.331Z,9.63
2017-11-29T10:38:19.916Z,9.40
2017-11-29T10:40:47.565Z,8.93
2017-11-29T10:43:15.253Z,8.90
2017-11-29T10:45:42.870Z,9.63
2017-11-29T10:48:10.500Z,10.30
2017-11-29T10:50:39.175Z,9.57
2017-11-29T10:53:08.514Z,8.53
2017-11-29T10:55:36.067Z,8.90
2017-11-29T10:58:03.817Z,10.00
2017-11-29T11:00:31.371Z,9.10
2017-11-29T11:02:59.113Z,10.37
2017-11-29T11:05:26.679Z,9.87
2017-11-29T11:07:54.293Z,10.00
2017-11-29T11:10:21.857Z,10.63
2017-11-29T11:12:49.617Z,10.07
2017-11-29T11:15:17.270Z,9.97
2017-11-29T11:17:44.877Z,11.73
2017-11-29T11:20:13.223Z,10.83
2017-11-29T11:22:41.729Z,10.47
2017-11-29T11:25:10.442Z,10.83
2017-11-29T11:27:38.050Z,10.77
2017-11-29T11:30:05.613Z,12.60
2017-11-29T11:32:33.225Z,10.53
2017-11-29T11:35:00.842Z,9.53
2017-11-29T11:37:34.336Z,9.33
2017-11-29T11:40:01.927Z,10.43
2017-11-29T11:42:29.550Z,11.17
2017-11-29T11:44:57.178Z,10.30
2017-11-29T11:47:24.807Z,10.77
2017-11-29T11:49:52.391Z,10.73
2017-11-29T11:52:20.760Z,10.73
2017-11-29T11:54:48.375Z,11.10
2017-11-29T11:57:16.406Z,18.43
2017-11-29T11:59:44.154Z,11.30
2017-11-29T12:02:12.341Z,10.70
2017-11-29T12:04:41.614Z,10.67
2017-11-29T12:07:09.296Z,9.60
2017-11-29T12:09:40.195Z,10.27
2017-11-29T12:12:07.958Z,11.13
2017-11-29T12:14:35.555Z,10.93
2017-11-29T12:17:03.908Z,10.57
2017-11-29T12:19:31.654Z,10.53
2017-11-29T12:21:59.259Z,11.00
2017-11-29T12:24:26.874Z,10.20
2017-11-29T12:26:54.505Z,12.07
2017-11-29T12:29:22.198Z,10.27
2017-11-29T12:31:49.784Z,10.17
2017-11-29T12:34:17.397Z,11.70
2017-11-29T12:36:45.129Z,12.87
2017-11-29T12:39:13.198Z,31.87
2017-11-29T12:41:40.770Z,11.47
2017-11-29T12:44:09.161Z,15.50
2017-11-29T12:46:36.751Z,12.53
2017-11-29T12:52:04.892Z,11.63
2017-11-29T12:54:32.455Z,10.83
2017-11-29T12:57:00.043Z,11.80
2017-11-29T12:59:27.605Z,15.33
2017-11-29T13:01:55.984Z,12.60
2017-11-29T13:04:23.574Z,26.90
2017-11-29T13:06:51.141Z,13.00
2017-11-29T13:09:18.882Z,15.23
2017-11-29T13:11:46.518Z,11.70
2017-11-29T13:14:14.885Z,15.03
2017-11-29T13:16:43.230Z,16.80
2017-11-29T13:19:10.791Z,12.17
2017-11-29T13:21:38.386Z,11.93
2017-11-29T13:24:06.023Z,12.60
2017-11-29T13:26:33.584Z,11.07
2017-11-29T13:29:01.192Z,12.53
2017-11-29T13:31:28.781Z,11.37
2017-11-29T13:33:56.378Z,12.57
2017-11-29T13:36:23.936Z,12.50
2017-11-29T13:38:51.580Z,12.33
2017-11-29T13:41:19.174Z,12.17
2017-11-29T13:43:46.777Z,12.43
2017-11-29T13:46:14.341Z,11.37
2017-11-29T13:48:41.962Z,14.43
2017-11-29T13:51:10.940Z,13.27
2017-11-29T13:53:38.579Z,12.40
2017-11-29T13:56:06.191Z,12.23
2017-11-29T13:58:34.601Z,11.97
2017-11-29T14:01:02.226Z,22.77
2017-11-29T14:03:30.559Z,15.70
2017-11-29T14:05:58.133Z,12.37
2017-11-29T14:08:25.752Z,12.70
2017-11-29T14:10:53.374Z,14.60
2017-11-29T14:13:21.195Z,12.63
2017-11-29T14:15:48.763Z,11.60
2017-11-29T14:18:16.355Z,12.43
2017-11-29T14:20:43.968Z,13.07
2017-11-29T14:23:11.882Z,18.63
2017-11-29T14:25:39.558Z,13.60
2017-11-29T14:28:07.167Z,16.27
2017-11-29T14:30:34.736Z,12.20
2017-11-29T14:33:02.364Z,13.97
2017-11-29T14:35:30.694Z,12.20
2017-11-29T14:37:59.529Z,12.83
2017-11-29T14:40:27.304Z,14.27
2017-11-29T14:42:55.038Z,14.37
2017-11-29T14:45:24.532Z,13.00
2017-11-29T14:47:53.091Z,13.20
2017-11-29T14:50:20.734Z,13.00
2017-11-29T14:52:48.324Z,12.63
2017-11-29T14:55:15.920Z,13.37
2017-11-29T14:57:44.259Z,12.73
2017-11-29T15:00:11.871Z,12.10
2017-11-29T15:02:39.816Z,13.50
2017-11-29T15:05:08.208Z,13.33
2017-11-29T15:07:36.572Z,11.80
2017-11-29T15:10:04.282Z,17.63
2017-11-29T15:12:31.845Z,14.77
2017-11-29T15:14:59.837Z,13.63
2017-11-29T15:17:27.853Z,13.30
2017-11-29T15:19:55.484Z,12.60
2017-11-29T15:22:23.887Z,13.57
2017-11-29T15:24:52.460Z,14.43
2017-11-29T15:27:20.242Z,13.70
2017-11-29T15:29:47.900Z,14.30
2017-11-29T15:32:16.006Z,13.87
2017-11-29T15:34:43.604Z,14.27
2017-11-29T15:37:11.242Z,13.90
2017-11-29T15:39:38.924Z,12.67
2017-11-29T15:42:06.491Z,14.67
2017-11-29T15:44:34.219Z,14.07
2017-11-29T15:47:02.000Z,13.07
2017-11-29T15:49:29.656Z,13.13
2017-11-29T15:51:57.260Z,14.20
2017-11-29T15:54:24.821Z,13.70
2017-11-29T15:56:53.051Z,14.50
2017-11-29T15:59:20.914Z,13.23
2017-11-29T16:01:48.671Z,13.23
2017-11-29T16:04:16.233Z,14.63
2017-11-29T16:06:43.845Z,13.50
2017-11-29T16:09:11.434Z,14.13
2017-11-29T16:11:39.467Z,12.97
2017-11-29T16:14:07.292Z,14.67
2017-11-29T16:16:34.908Z,13.97
2017-11-29T16:19:03.385Z,13.73
2017-11-29T16:21:31.800Z,13.77
2017-11-29T16:23:59.365Z,13.63
2017-11-29T16:26:26.983Z,14.40
2017-11-29T16:28:55.311Z,14.33
2017-11-29T16:31:22.945Z,13.10
2017-11-29T16:33:50.539Z,13.87
2017-11-29T16:36:18.224Z,14.50
2017-11-29T16:38:45.828Z,13.60
2017-11-29T16:41:14.274Z,13.40
2017-11-29T16:43:41.872Z,13.27
2017-11-29T16:46:09.568Z,13.60
2017-11-29T16:48:37.158Z,13.53
2017-11-29T16:51:04.795Z,13.40
2017-11-29T16:53:32.385Z,14.13
2017-11-29T16:56:00.204Z,23.10
2017-11-29T16:58:27.793Z,19.03
2017-11-29T17:00:56.345Z,13.90
2017-11-29T17:03:24.240Z,14.53
2017-11-29T17:05:51.811Z,14.40
2017-11-29T17:08:19.416Z,15.70
2017-11-29T17:10:47.017Z,13.60
2017-11-29T17:13:14.592Z,13.90
2017-11-29T17:15:42.430Z,14.90
2017-11-29T17:18:10.001Z,16.37
2017-11-29T17:20:37.800Z,15.80
2017-11-29T17:23:05.440Z,17.23
2017-11-29T17:25:33.037Z,16.70
2017-11-29T17:28:01.681Z,15.33
2017-11-29T17:30:29.494Z,14.37
2017-11-29T17:32:57.941Z,16.13
2017-11-29T17:35:26.343Z,15.43
2017-11-29T17:37:54.223Z,19.00
2017-11-29T17:40:22.961Z,14.97
2017-11-29T17:42:50.590Z,15.00
2017-11-29T17:45:18.181Z,16.07
2017-11-29T17:47:45.747Z,15.40
2017-11-29T17:50:13.401Z,18.93
2017-11-29T17:52:41.004Z,23.10
2017-11-29T17:55:08.658Z,18.43
2017-11-29T17:57:37.098Z,25.80
2017-11-29T18:00:04.659Z,15.00
2017-11-29T18:02:32.300Z,17.23
2017-11-29T18:04:59.875Z,16.27
2017-11-29T18:07:28.318Z,17.63
2017-11-29T18:09:56.124Z,21.83
2017-11-29T18:12:23.832Z,20.97
2017-11-29T18:14:51.468Z,17.03
2017-11-29T18:17:19.080Z,16.17
2017-11-29T18:19:46.696Z,16.40
2017-11-29T18:22:14.356Z,29.00
2017-11-29T18:24:42.302Z,34.47
2017-11-29T18:27:09.905Z,25.10
2017-11-29T18:29:37.562Z,19.10
2017-11-29T18:32:05.951Z,16.83
2017-11-29T18:34:34.226Z,15.27
2017-11-29T18:37:02.902Z,16.87
2017-11-29T18:39:30.730Z,16.53
2017-11-29T18:41:59.272Z,15.60
2017-11-29T18:44:27.944Z,16.90
2017-11-29T18:46:55.680Z,20.00
2017-11-29T18:49:26.030Z,19.77
2017-11-29T18:51:54.217Z,18.50
2017-11-29T18:54:22.588Z,19.17
2017-11-29T18:56:50.219Z,18.60
2017-11-29T18:59:17.781Z,17.37
2017-11-29T19:01:45.442Z,24.33
2017-11-29T19:04:13.048Z,17.30
2017-11-29T19:06:40.680Z,18.20
2017-11-29T19:09:08.278Z,18.50
2017-11-29T19:11:35.876Z,17.33
2017-11-29T19:14:04.532Z,23.70
2017-11-29T19:16:32.837Z,18.93
2017-11-29T19:19:01.930Z,18.57
2017-11-29T19:21:29.544Z,18.40
2017-11-29T19:23:57.390Z,20.80
2017-11-29T19:26:25.172Z,20.97
2017-11-29T19:28:52.989Z,20.07
2017-11-29T19:31:22.377Z,18.03
2017-11-29T19:33:50.991Z,17.33
2017-11-29T19:36:18.717Z,48.93
2017-11-29T19:38:46.463Z,21.47
2017-11-29T19:41:14.309Z,23.40
2017-11-29T19:43:42.153Z,22.47
2017-11-29T19:46:11.882Z,21.03
2017-11-29T19:48:40.464Z,19.50
2017-11-29T19:51:08.708Z,20.07
2017-11-29T19:53:36.997Z,20.30
2017-11-29T19:56:05.095Z,18.17
2017-11-29T19:58:33.247Z,18.60
2017-11-29T20:01:01.443Z,18.13
2017-11-29T20:03:29.512Z,20.23
2017-11-29T20:05:57.232Z,17.93
2017-11-29T20:08:25.555Z,17.47
2017-11-29T20:10:53.419Z,22.60
2017-11-29T20:13:21.704Z,18.80
2017-11-29T20:15:50.692Z,45.57
2017-11-29T20:18:20.562Z,20.13
2017-11-29T20:20:48.761Z,19.97
2017-11-29T20:23:17.020Z,19.00
2017-11-29T20:25:44.807Z,19.00
2017-11-29T20:28:13.768Z,18.77
2017-11-29T20:30:43.177Z,46.77
2017-11-29T20:33:11.663Z,26.43
2017-11-29T20:35:39.957Z,19.60
2017-11-29T20:38:07.626Z,18.57
2017-11-29T20:40:35.287Z,17.83
2017-11-29T20:43:03.044Z,18.23
2017-11-29T20:45:30.810Z,17.70
2017-11-29T20:47:58.705Z,19.73
2017-11-29T20:50:26.945Z,19.27
2017-11-29T20:52:55.850Z,18.97
2017-11-29T20:55:23.832Z,19.77
2017-11-29T20:57:51.576Z,18.13
2017-11-29T21:00:19.224Z,20.47
2017-11-29T21:02:46.814Z,18.17
2017-11-29T21:05:15.116Z,101.87
2017-11-29T21:07:42.969Z,53.73
2017-11-29T21:10:12.770Z,19.77
2017-11-29T21:12:40.651Z,31.67
2017-11-29T21:15:08.853Z,22.53
2017-11-29T21:17:37.136Z,18.27
2017-11-29T21:20:05.275Z,22.27
2017-11-29T21:22:33.552Z,19.30
2017-11-29T21:25:01.636Z,18.97
2017-11-29T21:27:30.305Z,19.47
2017-11-29T21:29:58.766Z,47.03
2017-11-29T21:32:28.783Z,21.13
2017-11-29T21:34:56.887Z,22.10
2017-11-29T21:37:24.677Z,19.77
2017-11-29T21:39:53.612Z,19.73
2017-11-29T21:42:23.144Z,18.93
2017-11-29T21:44:51.552Z,18.10
2017-11-29T21:47:19.492Z,20.20
2017-11-29T21:49:47.956Z,22.13
2017-11-29T21:52:16.560Z,21.20
2017-11-29T21:54:44.610Z,22.13
2017-11-29T21:57:12.475Z,18.67
2017-11-29T21:59:40.260Z,20.20
2017-11-29T22:02:08.722Z,18.23
2017-11-29T22:04:37.100Z,18.63
2017-11-29T22:07:04.872Z,19.93
2017-11-29T22:09:33.671Z,18.13
2017-11-29T22:12:02.440Z,19.03
2017-11-29T22:14:31.278Z,19.43
2017-11-29T22:16:58.936Z,20.60
2017-11-29T22:19:27.371Z,19.73
2017-11-29T22:21:55.872Z,18.60
2017-11-29T22:24:23.819Z,17.73
2017-11-29T22:26:52.148Z,18.73
2017-11-29T22:29:20.584Z,18.70
2017-11-29T22:31:49.031Z,18.43
2017-11-29T22:34:16.735Z,18.70
2017-11-29T22:36:44.433Z,19.37
2017-11-29T22:39:12.664Z,18.43
2017-11-29T22:41:41.413Z,19.37
2017-11-29T22:44:09.744Z,18.33
2017-11-29T22:46:37.491Z,18.10
2017-11-29T22:49:05.997Z,19.23
2017-11-29T22:51:33.666Z,19.07
2017-11-29T22:54:01.419Z,19.20
2017-11-29T22:56:30.700Z,17.83
2017-11-29T22:58:58.438Z,18.57
2017-11-29T23:01:26.143Z,19.17
2017-11-29T23:03:53.712Z,18.50
2017-11-29T23:06:21.698Z,19.07
2017-11-29T23:08:49.277Z,19.30
2017-11-29T23:11:17.557Z,17.70
2017-11-29T23:13:46.558Z,18.30
2017-11-29T23:16:14.867Z,18.60
2017-11-29T23:18:42.586Z,18.37
2017-11-29T23:21:11.853Z,19.00
2017-11-29T23:23:39.592Z,19.67
2017-11-29T23:26:07.225Z,18.77
2017-11-29T23:28:35.211Z,20.17
2017-11-29T23:31:03.044Z,18.93
2017-11-29T23:33:30.753Z,19.27
2017-11-29T23:35:58.648Z,20.77
2017-11-29T23:38:26.487Z,19.50
2017-11-29T23:40:54.101Z,18.97
2017-11-29T23:43:22.439Z,18.93
2017-11-29T23:45:50.601Z,18.73
2017-11-29T23:48:18.368Z,21.80
2017-11-29T23:50:46.438Z,18.70
2017-11-29T23:53:15.532Z,19.40
2017-11-29T23:55:43.662Z,18.87
2017-11-29T23:58:11.368Z,19.03
